createdAt,value
2023-04-08T00:01:18.134Z,7.40
2023-04-08T00:05:19.870Z,7.40
2023-04-08T00:09:21.521Z,7.40
2023-04-08T00:13:23.251Z,7.40
2023-04-08T00:17:26.573Z,7.50
2023-04-08T00:21:28.294Z,7.40
2023-04-08T00:25:32.784Z,7.50
2023-04-08T00:29:34.557Z,7.40
2023-04-08T00:33:36.654Z,7.40
2023-04-08T00:37:38.404Z,7.40
2023-04-08T00:41:40.283Z,7.40
2023-04-08T00:45:41.937Z,7.40
2023-04-08T00:49:44.357Z,7.40
2023-04-08T00:53:46.120Z,7.30
2023-04-08T00:57:48.662Z,7.30
2023-04-08T01:02:15.402Z,7.30
2023-04-08T01:06:46.948Z,7.30
2023-04-08T01:10:53.797Z,7.40
2023-04-08T01:15:06.386Z,7.30
2023-04-08T01:19:10.446Z,7.30
2023-04-08T01:23:40.681Z,7.40
2023-04-08T01:27:43.715Z,7.30
2023-04-08T01:31:47.028Z,7.40
2023-04-08T01:35:48.824Z,7.40
2023-04-08T01:39:52.221Z,7.40
2023-04-08T01:43:55.162Z,7.40
2023-04-08T01:47:58.297Z,7.30
2023-04-08T01:52:01.642Z,7.30
2023-04-08T01:56:12.078Z,7.30
2023-04-08T02:00:15.788Z,7.20
2023-04-08T02:04:17.554Z,7.30
2023-04-08T02:08:19.298Z,7.30
2023-04-08T02:12:21.029Z,7.20
2023-04-08T02:16:24.763Z,7.30
2023-04-08T02:20:26.409Z,7.30
2023-04-08T02:24:29.690Z,7.30
2023-04-08T02:28:34.231Z,7.30
2023-04-08T02:32:37.146Z,7.20
2023-04-08T02:36:41.007Z,7.30
2023-04-08T02:40:42.763Z,7.20
2023-04-08T02:44:44.468Z,7.30
2023-04-08T02:48:46.168Z,7.30
2023-04-08T02:52:47.894Z,7.30
2023-04-08T02:56:49.547Z,7.40
2023-04-08T03:00:51.271Z,7.40
2023-04-08T03:04:52.990Z,7.30
2023-04-08T03:08:54.634Z,7.30
2023-04-08T03:12:56.325Z,7.20
2023-04-08T03:16:58.015Z,7.20
2023-04-08T03:21:00.050Z,7.20
2023-04-08T03:25:01.769Z,7.30
2023-04-08T03:29:03.530Z,7.20
2023-04-08T03:33:08.005Z,7.20
2023-04-08T03:37:10.284Z,7.30
2023-04-08T03:41:12.260Z,7.20
2023-04-08T03:45:17.341Z,7.30
2023-04-08T03:49:19.040Z,7.30
2023-04-08T03:53:20.746Z,7.20
2023-04-08T03:57:22.430Z,7.20
2023-04-08T04:01:24.047Z,7.10
2023-04-08T04:05:25.720Z,7.20
2023-04-08T04:09:27.548Z,7.20
2023-04-08T04:13:29.258Z,7.20
2023-04-08T04:17:31.070Z,7.20
2023-04-08T04:21:32.860Z,7.30
2023-04-08T04:25:34.589Z,7.40
2023-04-08T04:29:36.532Z,7.40
2023-04-08T04:33:38.176Z,7.30
2023-04-08T04:37:39.841Z,7.20
2023-04-08T04:41:41.603Z,7.30
2023-04-08T04:45:44.061Z,7.30
2023-04-08T04:49:45.841Z,7.20
2023-04-08T04:53:49.226Z,7.20
2023-04-08T04:57:50.900Z,7.20
2023-04-08T05:01:52.699Z,7.20
2023-04-08T05:05:54.940Z,7.10
2023-04-08T05:09:56.655Z,7.10
2023-04-08T05:13:58.323Z,7.10
2023-04-08T05:18:00.289Z,7.00
2023-04-08T05:22:02.007Z,7.10
2023-04-08T05:26:06.636Z,7.00
2023-04-08T05:30:09.772Z,7.00
2023-04-08T05:34:11.643Z,7.00
2023-04-08T05:38:13.400Z,7.10
2023-04-08T05:42:15.188Z,7.10
2023-04-08T05:46:17.431Z,7.20
2023-04-08T05:50:19.258Z,7.10
2023-04-08T05:54:21.038Z,7.20
2023-04-08T05:58:22.755Z,7.30
2023-04-08T06:02:25.323Z,7.30
2023-04-08T06:06:27.223Z,7.20
2023-04-08T06:10:28.954Z,7.10
2023-04-08T06:14:30.825Z,7.20
2023-04-08T06:18:32.562Z,7.20
2023-04-08T06:22:34.229Z,7.10
2023-04-08T06:26:35.895Z,7.30
2023-04-08T06:30:37.936Z,7.30
2023-04-08T06:34:40.921Z,7.30
2023-04-08T06:38:42.613Z,7.20
2023-04-08T06:42:44.467Z,7.20
2023-04-08T06:46:46.707Z,7.20
2023-04-08T06:50:48.415Z,7.20
2023-04-08T06:54:53.277Z,7.40
2023-04-08T06:58:55.431Z,7.30
2023-04-08T07:02:57.293Z,7.30
2023-04-08T07:06:59.149Z,7.30
2023-04-08T07:11:01.034Z,7.40
2023-04-08T07:15:02.738Z,7.50
2023-04-08T07:19:04.481Z,7.60
2023-04-08T07:23:06.245Z,7.40
2023-04-08T07:27:09.196Z,7.40
2023-04-08T07:31:18.445Z,7.40
2023-04-08T07:35:24.259Z,7.30
2023-04-08T07:39:26.216Z,7.40
2023-04-08T07:43:28.015Z,7.40
2023-04-08T07:47:31.040Z,7.40
2023-04-08T07:51:33.510Z,7.60
2023-04-08T07:55:35.433Z,7.60
2023-04-08T07:59:37.376Z,7.60
2023-04-08T08:03:39.523Z,7.70
2023-04-08T08:07:41.505Z,7.80
2023-04-08T08:11:43.240Z,7.80
2023-04-08T08:15:44.956Z,7.80
2023-04-08T08:19:46.723Z,7.90
2023-04-08T08:23:48.511Z,8.00
2023-04-08T08:27:51.091Z,8.10
2023-04-08T08:31:52.849Z,8.10
2023-04-08T08:35:55.167Z,7.90
2023-04-08T08:39:56.897Z,8.10
2023-04-08T08:44:00.299Z,8.00
2023-04-08T08:48:02.468Z,8.20
2023-04-08T08:52:04.215Z,8.20
2023-04-08T09:00:16.132Z,8.60
2023-04-08T09:04:22.753Z,8.50
2023-04-08T09:08:34.944Z,8.60
2023-04-08T09:12:53.880Z,8.90
2023-04-08T09:16:55.635Z,8.90
2023-04-08T09:20:57.415Z,9.10
2023-04-08T09:24:59.269Z,9.00
2023-04-08T09:29:18.218Z,9.00
2023-04-08T09:33:33.039Z,9.00
2023-04-08T09:37:34.722Z,9.50
2023-04-08T09:41:38.239Z,9.90
2023-04-08T09:45:42.766Z,9.70
2023-04-08T09:49:51.213Z,9.90
2023-04-08T09:54:01.392Z,9.90
2023-04-08T09:58:17.006Z,10.20
2023-04-08T10:02:27.844Z,10.30
2023-04-08T10:06:31.430Z,10.30
2023-04-08T10:10:37.556Z,10.40
2023-04-08T10:14:39.942Z,10.30
2023-04-08T10:18:43.311Z,10.30
2023-04-08T10:22:48.725Z,10.30
2023-04-08T10:26:50.443Z,10.10
2023-04-08T10:30:58.598Z,10.60
2023-04-08T10:35:00.295Z,10.40
2023-04-08T10:39:02.054Z,10.50
2023-04-08T10:43:03.867Z,10.60
2023-04-08T10:47:05.619Z,10.70
2023-04-08T10:51:09.132Z,10.60
2023-04-08T10:55:11.830Z,10.70
2023-04-08T10:59:16.854Z,10.70
2023-04-08T11:03:19.743Z,11.30
2023-04-08T11:07:21.612Z,10.60
2023-04-08T11:11:29.379Z,10.70
2023-04-08T11:15:31.271Z,11.10
2023-04-08T11:19:35.965Z,10.60
2023-04-08T11:23:38.410Z,10.70
2023-04-08T11:27:40.667Z,10.50
2023-04-08T11:31:47.112Z,10.80
2023-04-08T11:35:51.674Z,10.70
2023-04-08T11:39:56.916Z,10.90
2023-04-08T11:43:58.590Z,10.70
2023-04-08T11:48:00.856Z,10.70
2023-04-08T11:52:03.763Z,10.90
2023-04-08T11:56:24.968Z,10.50
2023-04-08T12:00:27.948Z,11.00
2023-04-08T12:04:30.155Z,11.10
2023-04-08T12:08:32.008Z,11.10
2023-04-08T12:12:33.677Z,11.30
2023-04-08T12:16:35.543Z,11.10
2023-04-08T12:20:37.381Z,11.30
2023-04-08T12:24:39.072Z,11.20
2023-04-08T12:28:40.984Z,11.00
2023-04-08T12:32:45.913Z,11.10
2023-04-08T12:36:49.061Z,11.00
2023-04-08T12:40:50.940Z,11.20
2023-04-08T12:44:52.628Z,11.30
2023-04-08T12:49:03.206Z,11.40
2023-04-08T12:53:05.803Z,11.30
2023-04-08T12:57:07.596Z,11.20
2023-04-08T13:01:09.812Z,11.50
2023-04-08T13:05:11.587Z,11.60
2023-04-08T13:09:15.086Z,11.40
2023-04-08T13:13:16.813Z,11.70
2023-04-08T13:17:18.490Z,11.50
2023-04-08T13:21:20.225Z,11.10
2023-04-08T13:25:21.965Z,11.20
2023-04-08T13:29:23.691Z,11.00
2023-04-08T13:33:25.446Z,10.90
2023-04-08T13:37:27.332Z,11.10
2023-04-08T13:41:29.205Z,10.90
2023-04-08T13:45:31.124Z,10.90
2023-04-08T13:49:32.904Z,10.80
2023-04-08T13:53:34.930Z,10.80
2023-04-08T13:57:36.664Z,10.70
2023-04-08T14:01:40.559Z,10.90
2023-04-08T14:05:42.382Z,10.90
2023-04-08T14:09:44.088Z,10.70
2023-04-08T14:13:45.977Z,10.60
2023-04-08T14:17:48.449Z,10.50
2023-04-08T14:21:50.402Z,10.60
2023-04-08T14:25:52.509Z,10.70
2023-04-08T14:29:54.202Z,10.60
2023-04-08T14:34:02.412Z,10.70
2023-04-08T14:38:04.317Z,10.70
2023-04-08T14:42:06.108Z,10.70
2023-04-08T14:46:07.866Z,10.70
2023-04-08T14:50:10.850Z,10.90
2023-04-08T14:54:14.322Z,10.70
2023-04-08T14:58:19.223Z,10.60
2023-04-08T15:02:20.951Z,10.50
2023-04-08T15:06:23.221Z,10.60
2023-04-08T15:10:24.858Z,10.80
2023-04-08T15:14:26.593Z,10.80
2023-04-08T15:18:28.281Z,10.70
2023-04-08T15:22:29.944Z,10.80
2023-04-08T15:26:31.721Z,10.50
2023-04-08T15:30:35.581Z,10.50
2023-04-08T15:34:37.336Z,10.50
2023-04-08T15:38:39.784Z,10.60
2023-04-08T15:42:41.477Z,10.70
2023-04-08T15:46:43.190Z,10.50
2023-04-08T15:50:45.021Z,10.50
2023-04-08T15:54:47.168Z,10.50
2023-04-08T15:58:49.116Z,10.50
2023-04-08T16:02:51.337Z,10.70
2023-04-08T16:06:53.214Z,10.50
2023-04-08T16:11:01.770Z,10.40
2023-04-08T16:15:03.595Z,10.50
2023-04-08T16:19:05.493Z,10.40
2023-04-08T16:23:07.224Z,10.50
2023-04-08T16:27:09.192Z,10.70
2023-04-08T16:31:11.005Z,10.50
2023-04-08T16:35:13.262Z,10.50
2023-04-08T16:39:14.949Z,10.50
2023-04-08T16:43:16.579Z,10.30
2023-04-08T16:47:18.235Z,10.20
2023-04-08T16:51:19.984Z,10.30
2023-04-08T16:55:21.654Z,10.10
2023-04-08T16:59:23.379Z,10.40
2023-04-08T17:03:27.172Z,10.50
2023-04-08T17:07:29.594Z,10.50
2023-04-08T17:11:33.745Z,10.40
2023-04-08T17:15:36.388Z,10.40
2023-04-08T17:19:38.231Z,10.20
2023-04-08T17:23:40.350Z,10.30
2023-04-08T17:27:42.228Z,10.00
2023-04-08T17:31:44.452Z,9.90
2023-04-08T17:35:46.522Z,10.10
2023-04-08T17:39:48.225Z,10.20
2023-04-08T17:43:50.170Z,10.30
2023-04-08T17:47:52.213Z,10.20
2023-04-08T17:51:56.426Z,10.20
2023-04-08T17:55:58.428Z,10.10
2023-04-08T18:00:00.642Z,9.90
2023-04-08T18:04:02.375Z,9.60
2023-04-08T18:08:04.409Z,9.60
2023-04-08T18:12:06.775Z,9.70
2023-04-08T18:16:21.889Z,9.50
2023-04-08T18:20:23.629Z,9.50
2023-04-08T18:24:25.344Z,9.40
2023-04-08T18:28:26.985Z,9.30
2023-04-08T18:32:28.848Z,9.30
2023-04-08T18:36:31.654Z,9.30
2023-04-08T18:40:33.669Z,9.20
2023-04-08T18:44:35.526Z,9.10
2023-04-08T18:48:37.234Z,9.20
2023-04-08T18:52:38.960Z,9.10
2023-04-08T18:56:41.018Z,8.70
2023-04-08T19:00:43.677Z,8.50
2023-04-08T19:04:45.476Z,8.70
2023-04-08T19:08:48.320Z,8.70
2023-04-08T19:12:51.259Z,8.70
2023-04-08T19:16:53.035Z,8.70
2023-04-08T19:20:54.784Z,8.70
2023-04-08T19:24:56.556Z,8.70
2023-04-08T19:28:58.318Z,8.50
2023-04-08T19:33:00.065Z,8.40
2023-04-08T19:37:01.811Z,8.40
2023-04-08T19:41:06.433Z,8.40
2023-04-08T19:45:08.446Z,8.30
2023-04-08T19:49:10.148Z,7.80
2023-04-08T19:53:12.048Z,7.40
2023-04-08T19:57:13.750Z,7.60
2023-04-08T20:01:15.769Z,7.70
2023-04-08T20:05:17.667Z,7.50
2023-04-08T20:09:19.386Z,7.60
2023-04-08T20:13:21.136Z,7.60
2023-04-08T20:17:24.484Z,7.20
2023-04-08T20:21:26.621Z,6.90
2023-04-08T20:25:28.487Z,7.00
2023-04-08T20:29:30.140Z,7.10
2023-04-08T20:33:31.898Z,7.10
2023-04-08T20:37:33.670Z,7.20
2023-04-08T20:41:36.430Z,7.20
2023-04-08T20:45:38.120Z,7.30
2023-04-08T20:49:41.093Z,7.40
2023-04-08T20:53:44.430Z,7.40
2023-04-08T20:57:47.839Z,7.40
2023-04-08T21:01:49.588Z,7.40
2023-04-08T21:05:52.635Z,7.50
2023-04-08T21:09:54.333Z,7.40
2023-04-08T21:13:56.388Z,7.40
2023-04-08T21:17:58.142Z,7.40
2023-04-08T21:21:59.895Z,7.50
2023-04-08T21:26:03.304Z,7.40
2023-04-08T21:30:05.816Z,7.60
2023-04-08T21:34:07.544Z,7.50
2023-04-08T21:38:10.896Z,7.40
2023-04-08T21:42:12.525Z,7.60
2023-04-08T21:46:14.223Z,7.60
2023-04-08T21:50:16.434Z,7.70
2023-04-08T21:54:18.094Z,7.70
2023-04-08T21:58:19.813Z,7.80
2023-04-08T22:02:21.927Z,7.80
2023-04-08T22:06:32.063Z,7.90
2023-04-08T22:10:34.725Z,7.90
2023-04-08T22:14:36.692Z,7.80
2023-04-08T22:18:38.490Z,7.70
2023-04-08T22:22:40.192Z,7.60
2023-04-08T22:26:41.868Z,7.70
2023-04-08T22:30:43.654Z,7.80
2023-04-08T22:34:45.348Z,7.60
2023-04-08T22:38:47.466Z,7.40
2023-04-08T22:42:49.486Z,7.40
2023-04-08T22:46:51.595Z,7.40
2023-04-08T22:50:53.309Z,7.50
2023-04-08T22:54:55.056Z,7.30
2023-04-08T22:58:57.012Z,7.00
2023-04-08T23:02:59.004Z,7.10
2023-04-08T23:07:01.212Z,7.20
2023-04-08T23:11:02.921Z,7.10
2023-04-08T23:15:05.059Z,7.30
2023-04-08T23:19:06.767Z,7.40
2023-04-08T23:23:08.547Z,7.40
2023-04-08T23:27:10.421Z,7.30
2023-04-08T23:31:12.189Z,7.30
2023-04-08T23:35:13.899Z,7.10
2023-04-08T23:39:15.616Z,7.00
2023-04-08T23:43:17.334Z,7.00
2023-04-08T23:47:19.045Z,7.00
2023-04-08T23:51:20.879Z,7.10
2023-04-08T23:55:22.643Z,7.20
2023-04-08T23:59:24.694Z,7.10
